Jay, Maine
Current Conditions -  °F | °C
As of 7:53 PM on Friday 24 Oct 2014 (Local Time) from KAUG Reporting Station
Overcast Overcast  
Wind Chill: 40°   Ceiling: 2200
Heat Index: 46°   Visibility: 10mi
Dew Point: 40°   Wind: 14mph
Humidity: 79%   Direction: 330°NNW
Pressure: 29.69"   Gusts: NA
Location:  44.51°N, 70.22°W
Report Text: KAUG 242353Z AUTO 33012KT 10SM OVC022 08/04 A2969 RMK AO2 SLP057 60001 T00780044 10083 20078 53013
Loading
Personal Weather Stations






























Interactive Weather Map
Tropical Storm Tracking
New forecast layout! Learn more

10-Day Weather Forecast

Advertisements
Track Severe Weather on mobile